createdAt,value
2019-02-23T00:00:59.366Z,-0.48
2019-02-23T00:04:07.556Z,-0.54
2019-02-23T00:07:15.132Z,-0.62
2019-02-23T00:10:21.719Z,-0.68
2019-02-23T00:13:28.575Z,-0.80
2019-02-23T00:16:35.902Z,-0.90
2019-02-23T00:19:42.604Z,-0.86
2019-02-23T00:22:49.377Z,-0.79
2019-02-23T00:25:55.754Z,-0.91
2019-02-23T00:29:02.224Z,-1.02
2019-02-23T00:32:08.638Z,-1.03
2019-02-23T00:35:15.383Z,-0.94
2019-02-23T00:38:22.557Z,-0.91
2019-02-23T00:41:29.066Z,-0.92
2019-02-23T00:44:36.667Z,-0.83
2019-02-23T00:47:43.426Z,-0.92
2019-02-23T00:50:50.349Z,-0.92
2019-02-23T00:53:56.768Z,-0.83
2019-02-23T00:57:03.329Z,-0.99
2019-02-23T01:00:11.747Z,-0.96
2019-02-23T01:03:18.001Z,-0.96
2019-02-23T01:06:24.634Z,-1.14
2019-02-23T01:09:31.058Z,-1.19
2019-02-23T01:12:43.152Z,-1.26
2019-02-23T01:15:49.507Z,-1.16
2019-02-23T01:18:56.030Z,-1.21
2019-02-23T01:22:02.454Z,-1.28
2019-02-23T01:25:09.678Z,-1.28
2019-02-23T01:28:16.312Z,-1.27
2019-02-23T01:31:22.689Z,-1.40
2019-02-23T01:34:29.547Z,-1.36
2019-02-23T01:37:36.373Z,-1.33
2019-02-23T01:40:43.572Z,-1.33
2019-02-23T01:43:50.383Z,-1.32
2019-02-23T01:46:56.928Z,-1.32
2019-02-23T01:50:03.855Z,-1.34
2019-02-23T01:53:10.162Z,-1.37
2019-02-23T01:56:17.075Z,-1.42
2019-02-23T01:59:23.974Z,-1.38
2019-02-23T02:02:30.456Z,-1.45
2019-02-23T02:05:37.375Z,-1.53
2019-02-23T02:08:43.899Z,-1.60
2019-02-23T02:11:51.320Z,-1.64
2019-02-23T02:14:58.034Z,-1.60
2019-02-23T02:18:04.553Z,-1.63
2019-02-23T02:21:12.417Z,-1.69
2019-02-23T02:24:18.885Z,-1.78
2019-02-23T02:27:25.499Z,-1.81
2019-02-23T02:30:32.099Z,-1.90
2019-02-23T02:34:04.572Z,-1.95
2019-02-23T02:37:10.997Z,-2.04
2019-02-23T02:40:17.404Z,-2.15
2019-02-23T02:43:23.882Z,-2.29
2019-02-23T02:46:30.332Z,-2.41
2019-02-23T02:49:36.793Z,-2.52
2019-02-23T02:52:43.506Z,-2.60
2019-02-23T02:55:49.663Z,-2.75
2019-02-23T02:58:56.204Z,-2.79
2019-02-23T03:02:02.773Z,-2.87
2019-02-23T03:05:10.563Z,-2.90
2019-02-23T03:08:17.245Z,-2.91
2019-02-23T03:11:24.349Z,-2.97
2019-02-23T03:14:31.147Z,-3.00
2019-02-23T03:17:37.401Z,-3.01
2019-02-23T03:20:43.897Z,-3.06
2019-02-23T03:23:50.541Z,-3.07
2019-02-23T03:26:58.701Z,-2.99
2019-02-23T03:30:06.114Z,-3.02
2019-02-23T03:33:12.770Z,-2.99
2019-02-23T03:36:19.912Z,-2.99
2019-02-23T03:39:26.582Z,-3.03
2019-02-23T03:42:33.357Z,-2.85
2019-02-23T03:45:39.983Z,-2.77
2019-02-23T03:48:46.395Z,-2.83
2019-02-23T03:51:52.772Z,-2.76
2019-02-23T03:54:59.751Z,-2.92
2019-02-23T03:58:06.436Z,-2.99
2019-02-23T04:01:13.213Z,-3.11
2019-02-23T04:04:20.137Z,-3.25
2019-02-23T04:07:26.510Z,-3.30
2019-02-23T04:10:33.459Z,-3.39
2019-02-23T04:13:40.197Z,-3.43
2019-02-23T04:16:46.699Z,-3.54
2019-02-23T04:19:53.601Z,-3.57
2019-02-23T04:23:00.059Z,-3.68
2019-02-23T04:26:06.554Z,-3.63
2019-02-23T04:29:13.149Z,-3.71
2019-02-23T04:32:20.138Z,-3.72
2019-02-23T04:35:26.864Z,-3.80
2019-02-23T04:38:33.322Z,-3.82
2019-02-23T04:41:40.179Z,-3.97
2019-02-23T04:44:46.745Z,-4.06
2019-02-23T04:47:53.281Z,-4.16
2019-02-23T04:51:00.399Z,-4.17
2019-02-23T04:54:07.247Z,-4.19
2019-02-23T04:57:14.358Z,-4.25
2019-02-23T05:00:21.062Z,-4.26
2019-02-23T05:03:27.894Z,-4.31
2019-02-23T05:06:35.017Z,-4.33
2019-02-23T05:09:41.623Z,-4.25
2019-02-23T05:12:48.394Z,-4.42
2019-02-23T05:15:55.063Z,-4.46
2019-02-23T05:19:01.447Z,-4.43
2019-02-23T05:22:08.389Z,-4.58
2019-02-23T05:25:15.117Z,-4.60
2019-02-23T05:28:21.711Z,-4.61
2019-02-23T05:31:29.307Z,-4.57
2019-02-23T05:34:35.949Z,-4.58
2019-02-23T05:37:42.223Z,-4.64
2019-02-23T05:40:48.868Z,-4.66
2019-02-23T05:43:55.480Z,-4.72
2019-02-23T05:47:02.270Z,-4.67
2019-02-23T05:50:09.183Z,-4.80
2019-02-23T05:53:15.975Z,-4.89
2019-02-23T05:56:22.410Z,-4.92
2019-02-23T05:59:29.251Z,-4.78
2019-02-23T06:02:35.958Z,-4.83
2019-02-23T06:05:42.746Z,-4.84
2019-02-23T06:08:49.916Z,-4.90
2019-02-23T06:11:56.802Z,-4.94
2019-02-23T06:15:03.881Z,-4.96
2019-02-23T06:18:10.857Z,-4.94
2019-02-23T06:21:17.346Z,-5.02
2019-02-23T06:24:23.773Z,-4.89
2019-02-23T06:27:30.243Z,-4.97
2019-02-23T06:30:36.700Z,-4.96
2019-02-23T06:33:45.635Z,-4.99
2019-02-23T06:36:52.189Z,-4.93
2019-02-23T06:39:59.047Z,-4.80
2019-02-23T06:43:06.123Z,-4.75
2019-02-23T06:46:13.712Z,-4.71
2019-02-23T06:49:20.750Z,-4.63
2019-02-23T06:52:27.430Z,-4.49
2019-02-23T06:55:36.511Z,-4.43
2019-02-23T06:58:43.391Z,-4.36
2019-02-23T07:01:51.539Z,-4.44
2019-02-23T07:04:59.465Z,-4.25
2019-02-23T07:08:06.423Z,-4.16
2019-02-23T07:11:13.125Z,-4.10
2019-02-23T07:14:19.785Z,-4.04
2019-02-23T07:17:26.627Z,-4.14
2019-02-23T07:20:43.888Z,-3.93
2019-02-23T07:23:43.068Z,-4.03
2019-02-23T07:26:50.866Z,-3.94
2019-02-23T07:29:58.204Z,-3.74
2019-02-23T07:33:08.321Z,-3.82
2019-02-23T07:36:14.933Z,-3.76
2019-02-23T07:39:21.497Z,-3.52
2019-02-23T07:42:29.022Z,-3.38
2019-02-23T07:45:35.599Z,-3.36
2019-02-23T07:48:42.319Z,-3.35
2019-02-23T07:51:49.144Z,-3.14
2019-02-23T07:54:56.190Z,-3.09
2019-02-23T07:58:03.088Z,-2.77
2019-02-23T08:01:10.118Z,-2.64
2019-02-23T08:04:16.730Z,-2.64
2019-02-23T08:07:23.424Z,-2.37
2019-02-23T08:10:30.032Z,-2.19
2019-02-23T08:13:36.820Z,-1.71
2019-02-23T08:16:43.557Z,-1.59
2019-02-23T08:19:50.044Z,-1.45
2019-02-23T08:22:56.241Z,-1.28
2019-02-23T08:26:03.230Z,-1.01
2019-02-23T08:29:09.689Z,-0.79
2019-02-23T08:32:16.506Z,-0.66
2019-02-23T08:35:23.482Z,-0.55
2019-02-23T08:38:30.319Z,-0.39
2019-02-23T08:41:39.244Z,-0.04
2019-02-23T08:44:46.210Z,0.19
2019-02-23T08:47:53.032Z,0.19
2019-02-23T08:50:59.364Z,0.45
2019-02-23T08:54:06.711Z,0.58
2019-02-23T08:57:13.148Z,0.68
2019-02-23T09:00:20.083Z,0.77
2019-02-23T09:03:26.793Z,0.89
2019-02-23T09:06:34.785Z,0.78
2019-02-23T09:09:41.470Z,0.95
2019-02-23T09:12:48.735Z,0.97
2019-02-23T09:15:55.218Z,1.22
2019-02-23T09:19:01.861Z,1.55
2019-02-23T09:22:08.508Z,1.59
2019-02-23T09:25:15.508Z,1.77
2019-02-23T09:28:22.423Z,1.76
2019-02-23T09:31:30.495Z,2.04
2019-02-23T09:34:37.689Z,2.06
2019-02-23T09:37:44.322Z,2.03
2019-02-23T09:40:51.806Z,1.90
2019-02-23T09:44:00.894Z,2.17
2019-02-23T09:47:07.614Z,2.31
2019-02-23T09:50:14.548Z,2.25
2019-02-23T09:53:22.437Z,1.91
2019-02-23T09:56:28.993Z,2.13
2019-02-23T09:59:35.628Z,2.19
2019-02-23T10:02:42.635Z,2.44
2019-02-23T10:05:49.343Z,2.88
2019-02-23T10:08:56.311Z,2.86
2019-02-23T10:12:03.479Z,2.81
2019-02-23T10:15:10.231Z,3.03
2019-02-23T10:18:17.105Z,2.68
2019-02-23T10:21:23.712Z,2.89
2019-02-23T10:24:30.816Z,3.27
2019-02-23T10:27:37.811Z,3.61
2019-02-23T10:30:44.013Z,3.06
2019-02-23T10:33:51.033Z,3.27
2019-02-23T10:36:58.021Z,3.34
2019-02-23T10:40:04.923Z,3.54
2019-02-23T10:43:11.656Z,3.60
2019-02-23T10:46:18.022Z,3.79
2019-02-23T10:49:24.777Z,4.39
2019-02-23T10:52:33.672Z,4.61
2019-02-23T10:55:40.896Z,4.34
2019-02-23T10:58:49.450Z,4.78
2019-02-23T11:01:58.224Z,4.61
2019-02-23T11:05:05.859Z,4.90
2019-02-23T11:08:12.786Z,4.93
2019-02-23T11:11:19.607Z,5.18
2019-02-23T11:14:26.336Z,5.25
2019-02-23T11:17:34.940Z,5.41
2019-02-23T11:20:42.078Z,5.58
2019-02-23T11:23:48.700Z,5.52
2019-02-23T11:26:55.402Z,5.38
2019-02-23T11:30:02.168Z,5.90
2019-02-23T11:33:08.818Z,5.96
2019-02-23T11:36:18.323Z,5.82
2019-02-23T11:39:26.183Z,6.07
2019-02-23T11:42:32.649Z,6.04
2019-02-23T11:45:39.397Z,6.02
2019-02-23T11:48:47.310Z,5.79
2019-02-23T11:51:54.055Z,5.72
2019-02-23T11:55:00.753Z,6.13
2019-02-23T11:58:07.435Z,6.18
2019-02-23T12:01:14.506Z,6.26
2019-02-23T12:04:21.333Z,6.57
2019-02-23T12:07:27.813Z,6.99
2019-02-23T12:10:34.375Z,6.68
2019-02-23T12:13:42.382Z,6.99
2019-02-23T12:16:49.782Z,6.98
2019-02-23T12:19:57.051Z,7.25
2019-02-23T12:23:03.694Z,7.33
2019-02-23T12:26:11.174Z,7.38
2019-02-23T12:29:17.971Z,7.42
2019-02-23T12:32:25.694Z,7.32
2019-02-23T12:35:32.943Z,7.57
2019-02-23T12:38:39.877Z,7.61
2019-02-23T12:41:46.783Z,7.52
2019-02-23T12:44:53.339Z,7.81
2019-02-23T12:48:00.601Z,7.86
2019-02-23T12:51:10.416Z,7.82
2019-02-23T12:54:17.279Z,7.75
2019-02-23T12:57:24.203Z,7.80
2019-02-23T13:00:31.184Z,7.65
2019-02-23T13:03:37.816Z,7.69
2019-02-23T13:06:44.385Z,7.48
2019-02-23T13:09:53.234Z,7.59
2019-02-23T13:13:37.019Z,7.85
2019-02-23T13:17:26.581Z,7.67
2019-02-23T13:20:57.839Z,7.83
2019-02-23T13:24:41.264Z,7.71
2019-02-23T13:28:27.864Z,7.72
2019-02-23T13:32:11.704Z,7.87
2019-02-23T13:35:54.512Z,7.80
2019-02-23T13:39:30.596Z,7.72
2019-02-23T13:43:12.882Z,7.52
2019-02-23T13:46:43.498Z,7.67
2019-02-23T13:50:36.011Z,7.98
2019-02-23T13:54:38.841Z,7.99
2019-02-23T13:58:13.676Z,7.99
2019-02-23T14:01:37.643Z,8.15
2019-02-23T14:05:10.607Z,8.21
2019-02-23T14:08:49.493Z,8.10
2019-02-23T14:12:18.564Z,8.04
2019-02-23T14:15:50.585Z,7.98
2019-02-23T14:19:17.219Z,8.02
2019-02-23T14:23:03.260Z,8.09
2019-02-23T14:27:00.335Z,8.04
2019-02-23T14:30:44.732Z,7.74
2019-02-23T14:34:37.807Z,7.61
2019-02-23T14:38:40.184Z,7.61
2019-02-23T14:42:11.224Z,7.52
2019-02-23T14:45:55.980Z,7.20
2019-02-23T14:49:37.994Z,7.01
2019-02-23T14:53:34.224Z,6.85
2019-02-23T14:57:30.807Z,6.70
2019-02-23T15:01:27.543Z,6.64
2019-02-23T15:05:10.113Z,6.47
2019-02-23T15:08:45.422Z,6.38
2019-02-23T15:12:26.360Z,6.32
2019-02-23T15:15:54.668Z,6.25
2019-02-23T15:19:45.302Z,6.16
2019-02-23T15:23:16.348Z,5.96
2019-02-23T15:26:54.595Z,5.98
2019-02-23T15:30:34.139Z,5.88
2019-02-23T15:34:40.030Z,5.82
2019-02-23T15:38:37.859Z,5.78
2019-02-23T15:42:26.037Z,5.75
2019-02-23T15:46:12.959Z,5.69
2019-02-23T15:49:36.360Z,5.35
2019-02-23T15:52:43.319Z,5.19
2019-02-23T15:55:50.144Z,5.25
2019-02-23T15:58:56.929Z,5.20
2019-02-23T16:02:03.477Z,5.01
2019-02-23T16:05:10.268Z,4.91
2019-02-23T16:08:17.496Z,4.71
2019-02-23T16:11:24.612Z,4.41
2019-02-23T16:14:31.384Z,4.25
2019-02-23T16:17:38.088Z,4.07
2019-02-23T16:20:44.758Z,3.88
2019-02-23T16:23:51.709Z,3.70
2019-02-23T16:26:58.976Z,3.54
2019-02-23T16:30:06.995Z,3.35
2019-02-23T16:33:13.764Z,3.15
2019-02-23T16:36:20.651Z,2.97
2019-02-23T16:39:29.952Z,2.73
2019-02-23T16:42:36.401Z,2.58
2019-02-23T16:45:43.085Z,2.40
2019-02-23T16:48:51.233Z,2.34
2019-02-23T16:51:58.268Z,2.15
2019-02-23T16:55:05.062Z,1.88
2019-02-23T16:58:15.429Z,1.77
2019-02-23T17:01:27.519Z,1.66
2019-02-23T17:04:34.199Z,1.31
2019-02-23T17:07:41.123Z,1.14
2019-02-23T17:10:48.639Z,0.89
2019-02-23T17:13:56.920Z,0.85
2019-02-23T17:17:05.046Z,0.77
2019-02-23T17:20:12.025Z,0.60
2019-02-23T17:23:19.517Z,0.39
2019-02-23T17:26:26.045Z,0.21
2019-02-23T17:29:35.307Z,0.16
2019-02-23T17:32:42.516Z,0.13
2019-02-23T17:35:49.381Z,0.08
2019-02-23T17:38:57.468Z,0.07
2019-02-23T17:42:04.218Z,0.05
2019-02-23T17:45:11.284Z,-0.27
2019-02-23T17:48:18.987Z,-0.49
2019-02-23T17:51:26.483Z,-0.57
2019-02-23T17:54:33.499Z,-0.54
2019-02-23T17:57:40.381Z,-0.73
2019-02-23T18:00:46.941Z,-0.74
2019-02-23T18:03:55.037Z,-0.66
2019-02-23T18:07:02.116Z,-0.82
2019-02-23T18:10:08.916Z,-0.96
2019-02-23T18:13:16.153Z,-0.97
2019-02-23T18:16:23.156Z,-1.07
2019-02-23T18:19:30.017Z,-1.22
2019-02-23T18:22:38.521Z,-1.25
2019-02-23T18:25:46.642Z,-1.26
2019-02-23T18:28:53.029Z,-1.29
2019-02-23T18:31:59.723Z,-1.41
2019-02-23T18:35:08.730Z,-1.45
2019-02-23T18:38:15.792Z,-1.51
2019-02-23T18:41:22.868Z,-1.65
2019-02-23T18:44:30.324Z,-1.67
2019-02-23T18:47:37.239Z,-1.74
2019-02-23T18:50:44.127Z,-1.83
2019-02-23T18:53:51.386Z,-1.79
2019-02-23T18:56:58.273Z,-1.76
2019-02-23T19:00:05.389Z,-1.85
2019-02-23T19:03:13.136Z,-1.86
2019-02-23T19:06:19.761Z,-1.83
2019-02-23T19:09:26.971Z,-1.94
2019-02-23T19:12:33.527Z,-1.97
2019-02-23T19:15:40.551Z,-1.93
2019-02-23T19:18:48.831Z,-2.05
2019-02-23T19:21:55.298Z,-2.07
2019-02-23T19:25:02.808Z,-1.97
2019-02-23T19:28:10.211Z,-1.87
2019-02-23T19:31:17.188Z,-1.99
2019-02-23T19:34:24.338Z,-2.09
2019-02-23T19:37:32.592Z,-2.10
2019-02-23T19:40:39.848Z,-2.17
2019-02-23T19:43:46.774Z,-2.16
2019-02-23T19:47:00.444Z,-2.19
2019-02-23T19:50:23.045Z,-2.21
2019-02-23T19:53:30.682Z,-2.24
2019-02-23T19:56:46.443Z,-2.26
2019-02-23T19:59:49.481Z,-2.23
2019-02-23T20:02:55.992Z,-2.26
2019-02-23T20:06:03.091Z,-2.37
2019-02-23T20:09:10.132Z,-2.44
2019-02-23T20:12:18.345Z,-2.46
2019-02-23T20:15:25.247Z,-2.50
2019-02-23T20:18:32.029Z,-2.43
2019-02-23T20:21:42.037Z,-2.60
2019-02-23T20:24:49.024Z,-2.64
2019-02-23T20:27:56.379Z,-2.61
2019-02-23T20:31:03.315Z,-2.74
2019-02-23T20:34:09.841Z,-2.70
2019-02-23T20:37:16.453Z,-2.80
2019-02-23T20:40:23.661Z,-2.84
2019-02-23T20:43:30.658Z,-2.89
2019-02-23T20:46:37.974Z,-2.85
2019-02-23T20:49:45.408Z,-2.82
2019-02-23T20:52:54.071Z,-2.83
2019-02-23T20:56:00.657Z,-2.86
2019-02-23T20:59:08.593Z,-2.87
2019-02-23T21:02:15.807Z,-2.82
2019-02-23T21:05:22.593Z,-2.85
2019-02-23T21:08:29.518Z,-2.97
2019-02-23T21:11:37.354Z,-3.07
2019-02-23T21:14:43.729Z,-3.06
2019-02-23T21:17:52.027Z,-3.04
2019-02-23T21:21:02.413Z,-3.06
2019-02-23T21:24:09.328Z,-3.09
2019-02-23T21:27:17.087Z,-3.01
2019-02-23T21:30:24.179Z,-3.13
2019-02-23T21:33:31.958Z,-3.18
2019-02-23T21:36:38.905Z,-3.19
2019-02-23T21:39:45.913Z,-3.18
2019-02-23T21:42:52.598Z,-3.21
2019-02-23T21:45:59.255Z,-3.20
2019-02-23T21:49:06.581Z,-3.20
2019-02-23T21:52:13.356Z,-3.27
2019-02-23T21:55:21.581Z,-3.32
2019-02-23T21:58:29.137Z,-3.38
2019-02-23T22:01:36.565Z,-3.36
2019-02-23T22:04:43.829Z,-3.41
2019-02-23T22:07:50.766Z,-3.40
2019-02-23T22:10:57.193Z,-3.47
2019-02-23T22:14:04.512Z,-3.48
2019-02-23T22:17:11.707Z,-3.59
2019-02-23T22:20:18.101Z,-3.58
2019-02-23T22:23:25.277Z,-3.66
2019-02-23T22:26:32.544Z,-3.66
2019-02-23T22:29:39.749Z,-3.66
2019-02-23T22:32:46.581Z,-3.65
2019-02-23T22:35:53.408Z,-3.66
2019-02-23T22:38:59.922Z,-3.67
2019-02-23T22:42:06.736Z,-3.74
2019-02-23T22:45:13.499Z,-3.72
2019-02-23T22:48:20.650Z,-3.78
2019-02-23T22:51:27.960Z,-3.82
2019-02-23T22:54:35.469Z,-3.78
2019-02-23T22:57:42.283Z,-3.88
2019-02-23T23:00:54.480Z,-3.86
2019-02-23T23:04:02.272Z,-3.99
2019-02-23T23:07:11.422Z,-4.01
2019-02-23T23:10:18.297Z,-4.01
2019-02-23T23:13:25.280Z,-4.01
2019-02-23T23:16:31.937Z,-4.07
2019-02-23T23:19:38.643Z,-4.11
2019-02-23T23:22:45.100Z,-4.09
2019-02-23T23:25:52.240Z,-4.13
2019-02-23T23:28:59.118Z,-4.14
2019-02-23T23:32:06.448Z,-4.11
2019-02-23T23:35:13.028Z,-4.11
2019-02-23T23:38:19.481Z,-4.08
2019-02-23T23:41:27.151Z,-4.12
2019-02-23T23:44:33.348Z,-4.18
2019-02-23T23:47:40.187Z,-4.25
2019-02-23T23:50:47.602Z,-4.30
2019-02-23T23:53:54.546Z,-4.20
2019-02-23T23:57:01.796Z,-4.32
